Terminal Aerodrome Forecast
Issued by NWS

Home | Current Version | Previous Version | Text Only | Print | Product List | Glossary On
Versions: 1 2 3 4 5 6 7 8 9 10 11 12 13 14 15 16 17 18 19 20
511
FTUS42 KILM 261120
TAFCRE
TAF
KCRE 261120Z 2612/2712 05005KT P6SM SCT020 BKN060
     FM261400 11009KT P6SM VCSH SCT025 BKN070
     FM270000 14005KT P6SM SCT020 BKN120=

USA.gov is the U.S. government's official web portal to all federal, state and local government web resources and services.